Norwalk, IA (50211)

3:09 PM CST on February 10, 2016 (GMT -0600)
Norwalk, IA (2mi SW) | | Change Station
CLOSE
Current Station
Personal Weather Station
Location: Norwalk, IA
Elevation: 919 ft
Nearby Weather Stations

Elev 919 ft 41.46 °N, 93.71 °W | Updated 12 seconds ago

Overcast
Overcast
19.9 °F
Feels Like 11 °F
N
7.2
Wind Variable Wind from ESE
Gusts 7.8 mph

Today
High -- | Low -- °F
--% Chance of Precip.
Yesterday
High -- | Low -- °F
Precip. -- in
Pressure 30.08 in
Visibility 10.0 miles
Clouds Few 3100 ft
Mostly Cloudy 4400 ft
Overcast 5500 ft
Windchill 11 °F
Dew Point 14 °F
Humidity 77%
Rainfall 0.00 in
Snow Depth Not available.
7:16 AM 5:41 PM
Waxing Crescent, 7% visible
METAR KDSM 102054Z 09009KT 10SM FEW031 BKN044 OVC055 M07/M11 A3003 RMK AO2 SNE47 SLP185 P0000 60001 T10721111 55012
Pressure 30.08 in
Visibility 10.0 miles
Clouds Few 3100 ft
Mostly Cloudy 4400 ft
Overcast 5500 ft
Windchill 11 °F
Dew Point 14 °F
Humidity 77%
Rainfall 0.00 in
Snow Depth Not available.
7:16 AM 5:41 PM
Waxing Crescent, 7% visible
METAR KDSM 102054Z 09009KT 10SM FEW031 BKN044 OVC055 M07/M11 A3003 RMK AO2 SNE47 SLP185 P0000 60001 T10721111 55012

10-Day Weather Forecast

Almanac

Astronomy

Feb. 10, 2016 Rise Set
Actual Time
Civil Twilight
Nautical Twilight
Astronomical Twilight
Moon
Length of Visible Light
Length of Day
Tomorrow will be .
, % of the Moon is Illuminated

Today's Extremes

State Highs State Lows

Community

WunderPhotos

Upload Photos

1,891,947 photos uploaded!

WunderBlog® & News

Nearby

Air Quality

  Air Quality AQ Index Pollutant
Not available.

Snow Depth

Station Depth Elevation

Earthquake Activity

City Distance Mag. Time & Date
Minimum magnitude displayed is 2.5.

Coastal Water Temperatures

Place Temperature

Stations

Nearby Weather Stations

Station Location Temp. Windchill Dew Point Humidity Wind Precip. Elev Updated Type
                   

Watches & Warnings

There are currently no watches in effect.